sensor_id;sensor_type;location;lat;lon;timestamp;P1;durP1;ratioP1;P2;durP2;ratioP2
15132;SDS011;7667;51.232;17.110;2023-12-07T00:00:26;75.80;;;48.17;;
15132;SDS011;7667;51.232;17.110;2023-12-07T00:02:54;73.33;;;48.67;;
15132;SDS011;7667;51.232;17.110;2023-12-07T00:05:21;76.17;;;49.97;;
15132;SDS011;7667;51.232;17.110;2023-12-07T00:07:49;72.77;;;43.87;;
15132;SDS011;7667;51.232;17.110;2023-12-07T00:10:17;72.37;;;43.63;;
15132;SDS011;7667;51.232;17.110;2023-12-07T00:12:45;69.50;;;42.83;;
15132;SDS011;7667;51.232;17.110;2023-12-07T00:15:12;73.93;;;44.40;;
15132;SDS011;7667;51.232;17.110;2023-12-07T00:17:40;67.37;;;42.10;;
15132;SDS011;7667;51.232;17.110;2023-12-07T00:20:07;65.00;;;42.27;;
15132;SDS011;7667;51.232;17.110;2023-12-07T00:22:35;69.60;;;42.73;;
15132;SDS011;7667;51.232;17.110;2023-12-07T00:25:03;67.17;;;42.40;;
15132;SDS011;7667;51.232;17.110;2023-12-07T00:27:32;64.77;;;41.27;;
15132;SDS011;7667;51.232;17.110;2023-12-07T00:29:59;61.63;;;39.03;;
15132;SDS011;7667;51.232;17.110;2023-12-07T00:32:27;58.47;;;42.33;;
15132;SDS011;7667;51.232;17.110;2023-12-07T00:34:55;61.20;;;42.53;;
15132;SDS011;7667;51.232;17.110;2023-12-07T00:37:22;66.53;;;44.30;;
15132;SDS011;7667;51.232;17.110;2023-12-07T00:39:50;66.47;;;44.43;;
15132;SDS011;7667;51.232;17.110;2023-12-07T00:42:17;68.47;;;45.30;;
15132;SDS011;7667;51.232;17.110;2023-12-07T00:44:45;64.53;;;41.33;;
15132;SDS011;7667;51.232;17.110;2023-12-07T00:47:12;64.23;;;41.13;;
15132;SDS011;7667;51.232;17.110;2023-12-07T00:49:40;74.17;;;47.33;;
15132;SDS011;7667;51.232;17.110;2023-12-07T00:52:08;68.17;;;45.73;;
15132;SDS011;7667;51.232;17.110;2023-12-07T00:54:36;68.93;;;42.97;;
15132;SDS011;7667;51.232;17.110;2023-12-07T00:57:03;69.33;;;44.23;;
15132;SDS011;7667;51.232;17.110;2023-12-07T00:59:32;62.33;;;40.47;;
15132;SDS011;7667;51.232;17.110;2023-12-07T01:02:03;70.10;;;44.60;;
15132;SDS011;7667;51.232;17.110;2023-12-07T01:04:31;60.90;;;40.07;;
15132;SDS011;7667;51.232;17.110;2023-12-07T01:07:00;65.67;;;40.17;;
15132;SDS011;7667;51.232;17.110;2023-12-07T01:09:28;64.50;;;38.77;;
15132;SDS011;7667;51.232;17.110;2023-12-07T01:11:55;63.00;;;39.90;;
15132;SDS011;7667;51.232;17.110;2023-12-07T01:14:24;63.87;;;40.20;;
15132;SDS011;7667;51.232;17.110;2023-12-07T01:16:52;63.60;;;38.77;;
15132;SDS011;7667;51.232;17.110;2023-12-07T01:19:20;57.97;;;39.33;;
15132;SDS011;7667;51.232;17.110;2023-12-07T01:21:48;63.03;;;39.90;;
15132;SDS011;7667;51.232;17.110;2023-12-07T01:24:15;61.73;;;39.13;;
15132;SDS011;7667;51.232;17.110;2023-12-07T01:26:43;68.13;;;45.50;;
15132;SDS011;7667;51.232;17.110;2023-12-07T01:29:11;72.13;;;43.30;;
15132;SDS011;7667;51.232;17.110;2023-12-07T01:31:40;66.87;;;45.20;;
15132;SDS011;7667;51.232;17.110;2023-12-07T01:34:08;63.87;;;39.60;;
15132;SDS011;7667;51.232;17.110;2023-12-07T01:36:36;66.40;;;44.03;;
15132;SDS011;7667;51.232;17.110;2023-12-07T01:39:05;63.70;;;42.30;;
15132;SDS011;7667;51.232;17.110;2023-12-07T01:41:32;63.47;;;43.43;;
15132;SDS011;7667;51.232;17.110;2023-12-07T01:44:00;62.80;;;41.63;;
15132;SDS011;7667;51.232;17.110;2023-12-07T01:46:27;64.37;;;44.70;;
15132;SDS011;7667;51.232;17.110;2023-12-07T01:48:55;63.83;;;43.23;;
15132;SDS011;7667;51.232;17.110;2023-12-07T01:51:23;67.07;;;44.43;;
15132;SDS011;7667;51.232;17.110;2023-12-07T01:53:51;65.37;;;41.30;;
15132;SDS011;7667;51.232;17.110;2023-12-07T01:56:19;63.80;;;43.70;;
15132;SDS011;7667;51.232;17.110;2023-12-07T01:58:49;62.13;;;39.40;;
15132;SDS011;7667;51.232;17.110;2023-12-07T02:01:17;65.07;;;40.20;;
15132;SDS011;7667;51.232;17.110;2023-12-07T02:03:45;61.13;;;41.60;;
15132;SDS011;7667;51.232;17.110;2023-12-07T02:06:13;62.43;;;39.63;;
15132;SDS011;7667;51.232;17.110;2023-12-07T02:08:40;64.57;;;43.60;;
15132;SDS011;7667;51.232;17.110;2023-12-07T02:11:09;64.20;;;43.27;;
15132;SDS011;7667;51.232;17.110;2023-12-07T02:13:37;59.97;;;42.47;;
15132;SDS011;7667;51.232;17.110;2023-12-07T02:16:11;59.57;;;42.33;;
15132;SDS011;7667;51.232;17.110;2023-12-07T02:21:51;59.70;;;40.70;;
15132;SDS011;7667;51.232;17.110;2023-12-07T02:24:25;59.70;;;40.80;;
15132;SDS011;7667;51.232;17.110;2023-12-07T02:26:55;63.30;;;40.07;;
15132;SDS011;7667;51.232;17.110;2023-12-07T02:29:23;64.10;;;40.27;;
15132;SDS011;7667;51.232;17.110;2023-12-07T02:31:50;60.93;;;40.53;;
15132;SDS011;7667;51.232;17.110;2023-12-07T02:34:18;63.50;;;38.57;;
15132;SDS011;7667;51.232;17.110;2023-12-07T02:36:46;62.80;;;43.03;;
15132;SDS011;7667;51.232;17.110;2023-12-07T02:39:19;61.20;;;41.87;;
15132;SDS011;7667;51.232;17.110;2023-12-07T02:41:47;66.50;;;41.97;;
15132;SDS011;7667;51.232;17.110;2023-12-07T02:44:16;64.60;;;41.20;;
15132;SDS011;7667;51.232;17.110;2023-12-07T02:46:44;63.73;;;39.77;;
15132;SDS011;7667;51.232;17.110;2023-12-07T02:49:12;63.13;;;39.10;;
15132;SDS011;7667;51.232;17.110;2023-12-07T02:51:40;59.13;;;40.53;;
15132;SDS011;7667;51.232;17.110;2023-12-07T02:54:07;62.63;;;41.33;;
15132;SDS011;7667;51.232;17.110;2023-12-07T02:56:35;61.70;;;39.00;;
15132;SDS011;7667;51.232;17.110;2023-12-07T02:59:03;60.43;;;37.00;;
15132;SDS011;7667;51.232;17.110;2023-12-07T03:01:30;63.37;;;43.17;;
15132;SDS011;7667;51.232;17.110;2023-12-07T03:03:58;62.03;;;41.20;;
15132;SDS011;7667;51.232;17.110;2023-12-07T03:06:26;61.90;;;40.53;;
15132;SDS011;7667;51.232;17.110;2023-12-07T03:08:53;63.27;;;40.03;;
15132;SDS011;7667;51.232;17.110;2023-12-07T03:11:21;62.47;;;38.97;;
15132;SDS011;7667;51.232;17.110;2023-12-07T03:13:48;60.07;;;41.57;;
15132;SDS011;7667;51.232;17.110;2023-12-07T03:16:16;62.23;;;40.00;;
15132;SDS011;7667;51.232;17.110;2023-12-07T03:18:44;63.20;;;39.43;;
15132;SDS011;7667;51.232;17.110;2023-12-07T03:21:11;63.33;;;40.50;;
15132;SDS011;7667;51.232;17.110;2023-12-07T03:23:39;65.17;;;43.97;;
15132;SDS011;7667;51.232;17.110;2023-12-07T03:26:07;63.57;;;43.47;;
15132;SDS011;7667;51.232;17.110;2023-12-07T03:28:34;60.50;;;41.50;;
15132;SDS011;7667;51.232;17.110;2023-12-07T03:31:02;60.90;;;39.70;;
15132;SDS011;7667;51.232;17.110;2023-12-07T03:33:30;64.80;;;40.90;;
15132;SDS011;7667;51.232;17.110;2023-12-07T03:35:58;64.23;;;42.47;;
15132;SDS011;7667;51.232;17.110;2023-12-07T03:38:25;62.53;;;42.57;;
15132;SDS011;7667;51.232;17.110;2023-12-07T03:40:53;62.67;;;43.37;;
15132;SDS011;7667;51.232;17.110;2023-12-07T03:43:20;62.87;;;42.77;;
15132;SDS011;7667;51.232;17.110;2023-12-07T03:45:48;62.80;;;42.83;;
15132;SDS011;7667;51.232;17.110;2023-12-07T03:48:16;66.27;;;42.90;;
15132;SDS011;7667;51.232;17.110;2023-12-07T03:50:44;67.00;;;43.67;;
15132;SDS011;7667;51.232;17.110;2023-12-07T03:53:11;67.27;;;44.37;;
15132;SDS011;7667;51.232;17.110;2023-12-07T03:55:39;65.60;;;42.90;;
15132;SDS011;7667;51.232;17.110;2023-12-07T03:58:08;65.07;;;42.70;;
15132;SDS011;7667;51.232;17.110;2023-12-07T04:00:35;68.20;;;41.77;;
15132;SDS011;7667;51.232;17.110;2023-12-07T04:03:03;77.80;;;49.27;;
15132;SDS011;7667;51.232;17.110;2023-12-07T04:05:31;77.23;;;46.17;;
15132;SDS011;7667;51.232;17.110;2023-12-07T04:07:59;82.93;;;48.73;;
15132;SDS011;7667;51.232;17.110;2023-12-07T04:10:27;77.07;;;45.23;;
15132;SDS011;7667;51.232;17.110;2023-12-07T04:12:54;73.33;;;47.80;;
15132;SDS011;7667;51.232;17.110;2023-12-07T04:15:22;75.67;;;47.30;;
15132;SDS011;7667;51.232;17.110;2023-12-07T04:17:50;82.17;;;48.33;;
15132;SDS011;7667;51.232;17.110;2023-12-07T04:20:19;92.43;;;58.90;;
15132;SDS011;7667;51.232;17.110;2023-12-07T04:22:47;95.10;;;61.60;;
15132;SDS011;7667;51.232;17.110;2023-12-07T04:25:14;86.40;;;55.00;;
15132;SDS011;7667;51.232;17.110;2023-12-07T04:27:42;77.47;;;47.73;;
15132;SDS011;7667;51.232;17.110;2023-12-07T04:30:10;68.30;;;42.47;;
15132;SDS011;7667;51.232;17.110;2023-12-07T04:32:38;70.97;;;46.63;;
15132;SDS011;7667;51.232;17.110;2023-12-07T04:35:06;69.17;;;47.37;;
15132;SDS011;7667;51.232;17.110;2023-12-07T04:37:35;77.43;;;47.53;;
15132;SDS011;7667;51.232;17.110;2023-12-07T04:40:03;93.50;;;58.03;;
15132;SDS011;7667;51.232;17.110;2023-12-07T04:42:31;82.53;;;52.60;;
15132;SDS011;7667;51.232;17.110;2023-12-07T04:44:59;87.70;;;56.17;;
15132;SDS011;7667;51.232;17.110;2023-12-07T04:47:27;104.63;;;60.87;;
15132;SDS011;7667;51.232;17.110;2023-12-07T04:49:55;100.77;;;60.07;;
15132;SDS011;7667;51.232;17.110;2023-12-07T04:52:22;90.67;;;56.70;;
15132;SDS011;7667;51.232;17.110;2023-12-07T04:54:50;88.73;;;56.33;;
15132;SDS011;7667;51.232;17.110;2023-12-07T04:57:18;86.00;;;49.90;;
15132;SDS011;7667;51.232;17.110;2023-12-07T04:59:45;82.87;;;52.63;;
15132;SDS011;7667;51.232;17.110;2023-12-07T05:02:14;75.73;;;46.20;;
15132;SDS011;7667;51.232;17.110;2023-12-07T05:04:43;79.73;;;48.60;;
15132;SDS011;7667;51.232;17.110;2023-12-07T05:07:12;75.43;;;48.77;;
15132;SDS011;7667;51.232;17.110;2023-12-07T05:09:40;70.10;;;44.97;;
15132;SDS011;7667;51.232;17.110;2023-12-07T05:12:08;69.07;;;42.63;;
15132;SDS011;7667;51.232;17.110;2023-12-07T05:14:36;71.57;;;43.00;;
15132;SDS011;7667;51.232;17.110;2023-12-07T05:17:03;67.80;;;45.17;;
15132;SDS011;7667;51.232;17.110;2023-12-07T05:19:32;72.27;;;46.37;;
15132;SDS011;7667;51.232;17.110;2023-12-07T05:21:59;70.60;;;47.17;;
15132;SDS011;7667;51.232;17.110;2023-12-07T05:24:27;72.33;;;46.60;;
15132;SDS011;7667;51.232;17.110;2023-12-07T05:26:57;69.83;;;46.00;;
15132;SDS011;7667;51.232;17.110;2023-12-07T05:29:24;70.73;;;44.77;;
15132;SDS011;7667;51.232;17.110;2023-12-07T05:31:52;69.47;;;45.47;;
15132;SDS011;7667;51.232;17.110;2023-12-07T05:34:19;69.17;;;45.33;;
15132;SDS011;7667;51.232;17.110;2023-12-07T05:36:47;65.67;;;43.83;;
15132;SDS011;7667;51.232;17.110;2023-12-07T05:39:15;67.43;;;40.87;;
15132;SDS011;7667;51.232;17.110;2023-12-07T05:41:44;72.13;;;46.27;;
15132;SDS011;7667;51.232;17.110;2023-12-07T05:44:13;70.57;;;46.37;;
15132;SDS011;7667;51.232;17.110;2023-12-07T05:46:41;69.57;;;45.70;;
15132;SDS011;7667;51.232;17.110;2023-12-07T05:49:11;66.77;;;40.90;;
15132;SDS011;7667;51.232;17.110;2023-12-07T05:51:39;69.43;;;45.47;;
15132;SDS011;7667;51.232;17.110;2023-12-07T05:54:07;68.10;;;43.20;;
15132;SDS011;7667;51.232;17.110;2023-12-07T05:56:34;68.97;;;43.60;;
15132;SDS011;7667;51.232;17.110;2023-12-07T05:59:02;70.63;;;46.43;;
15132;SDS011;7667;51.232;17.110;2023-12-07T06:01:29;66.27;;;44.27;;
15132;SDS011;7667;51.232;17.110;2023-12-07T06:03:57;67.10;;;44.97;;
15132;SDS011;7667;51.232;17.110;2023-12-07T06:06:26;67.60;;;44.73;;
15132;SDS011;7667;51.232;17.110;2023-12-07T06:08:53;67.00;;;44.80;;
15132;SDS011;7667;51.232;17.110;2023-12-07T06:11:21;71.27;;;45.63;;
15132;SDS011;7667;51.232;17.110;2023-12-07T06:13:49;66.70;;;42.70;;
15132;SDS011;7667;51.232;17.110;2023-12-07T06:16:16;65.53;;;43.57;;
15132;SDS011;7667;51.232;17.110;2023-12-07T06:18:45;70.63;;;45.80;;
15132;SDS011;7667;51.232;17.110;2023-12-07T06:21:13;69.13;;;45.83;;
15132;SDS011;7667;51.232;17.110;2023-12-07T06:23:41;67.40;;;41.50;;
15132;SDS011;7667;51.232;17.110;2023-12-07T06:26:09;63.03;;;43.37;;
15132;SDS011;7667;51.232;17.110;2023-12-07T06:28:36;69.10;;;45.20;;
15132;SDS011;7667;51.232;17.110;2023-12-07T06:31:04;64.10;;;44.47;;
15132;SDS011;7667;51.232;17.110;2023-12-07T06:33:35;68.97;;;45.60;;
15132;SDS011;7667;51.232;17.110;2023-12-07T06:36:03;71.63;;;45.53;;
15132;SDS011;7667;51.232;17.110;2023-12-07T06:38:31;71.60;;;44.53;;
15132;SDS011;7667;51.232;17.110;2023-12-07T06:40:59;71.40;;;46.80;;
15132;SDS011;7667;51.232;17.110;2023-12-07T06:43:26;67.60;;;44.37;;
15132;SDS011;7667;51.232;17.110;2023-12-07T06:45:54;68.47;;;45.77;;
15132;SDS011;7667;51.232;17.110;2023-12-07T06:48:22;71.27;;;46.33;;
15132;SDS011;7667;51.232;17.110;2023-12-07T06:50:50;67.53;;;44.63;;
15132;SDS011;7667;51.232;17.110;2023-12-07T06:53:18;69.20;;;43.90;;
15132;SDS011;7667;51.232;17.110;2023-12-07T06:55:45;68.73;;;45.53;;
15132;SDS011;7667;51.232;17.110;2023-12-07T06:58:13;69.67;;;45.87;;
15132;SDS011;7667;51.232;17.110;2023-12-07T07:00:41;72.67;;;46.27;;
15132;SDS011;7667;51.232;17.110;2023-12-07T07:03:08;70.50;;;43.50;;
15132;SDS011;7667;51.232;17.110;2023-12-07T07:05:36;72.90;;;43.10;;
15132;SDS011;7667;51.232;17.110;2023-12-07T07:08:04;75.47;;;48.37;;
15132;SDS011;7667;51.232;17.110;2023-12-07T07:10:33;71.67;;;46.60;;
15132;SDS011;7667;51.232;17.110;2023-12-07T07:13:01;77.17;;;48.50;;
15132;SDS011;7667;51.232;17.110;2023-12-07T07:15:32;74.30;;;44.47;;
15132;SDS011;7667;51.232;17.110;2023-12-07T07:18:00;81.33;;;46.40;;
15132;SDS011;7667;51.232;17.110;2023-12-07T07:20:28;75.00;;;47.83;;
15132;SDS011;7667;51.232;17.110;2023-12-07T07:22:56;71.93;;;43.23;;
15132;SDS011;7667;51.232;17.110;2023-12-07T07:25:24;74.23;;;44.93;;
15132;SDS011;7667;51.232;17.110;2023-12-07T07:27:51;73.87;;;44.17;;
15132;SDS011;7667;51.232;17.110;2023-12-07T07:30:21;68.10;;;44.80;;
15132;SDS011;7667;51.232;17.110;2023-12-07T07:32:49;74.63;;;43.93;;
15132;SDS011;7667;51.232;17.110;2023-12-07T07:35:17;82.00;;;49.50;;
15132;SDS011;7667;51.232;17.110;2023-12-07T07:37:45;81.60;;;49.63;;
15132;SDS011;7667;51.232;17.110;2023-12-07T07:40:13;81.57;;;49.63;;
15132;SDS011;7667;51.232;17.110;2023-12-07T07:42:41;89.80;;;51.90;;
15132;SDS011;7667;51.232;17.110;2023-12-07T07:45:09;89.00;;;51.93;;
15132;SDS011;7667;51.232;17.110;2023-12-07T07:47:37;93.63;;;53.73;;
15132;SDS011;7667;51.232;17.110;2023-12-07T07:50:05;88.40;;;52.13;;
15132;SDS011;7667;51.232;17.110;2023-12-07T07:52:33;97.67;;;56.10;;
15132;SDS011;7667;51.232;17.110;2023-12-07T07:55:03;95.83;;;53.37;;
15132;SDS011;7667;51.232;17.110;2023-12-07T07:57:31;109.40;;;60.67;;
15132;SDS011;7667;51.232;17.110;2023-12-07T07:59:59;110.67;;;66.37;;
15132;SDS011;7667;51.232;17.110;2023-12-07T08:02:26;110.63;;;65.03;;
15132;SDS011;7667;51.232;17.110;2023-12-07T08:04:54;104.83;;;60.53;;
15132;SDS011;7667;51.232;17.110;2023-12-07T08:07:22;97.40;;;53.83;;
15132;SDS011;7667;51.232;17.110;2023-12-07T08:09:50;97.80;;;54.10;;
15132;SDS011;7667;51.232;17.110;2023-12-07T08:12:18;93.40;;;52.27;;
15132;SDS011;7667;51.232;17.110;2023-12-07T08:14:45;91.03;;;53.37;;
15132;SDS011;7667;51.232;17.110;2023-12-07T08:17:15;106.00;;;60.37;;
15132;SDS011;7667;51.232;17.110;2023-12-07T08:19:43;96.40;;;58.03;;
15132;SDS011;7667;51.232;17.110;2023-12-07T08:22:10;102.43;;;57.23;;
15132;SDS011;7667;51.232;17.110;2023-12-07T08:24:39;97.30;;;54.43;;
15132;SDS011;7667;51.232;17.110;2023-12-07T08:27:07;106.43;;;54.30;;
15132;SDS011;7667;51.232;17.110;2023-12-07T08:29:34;94.03;;;53.23;;
15132;SDS011;7667;51.232;17.110;2023-12-07T08:32:03;97.60;;;53.50;;
15132;SDS011;7667;51.232;17.110;2023-12-07T08:34:31;98.87;;;53.50;;
15132;SDS011;7667;51.232;17.110;2023-12-07T08:36:59;94.37;;;54.23;;
15132;SDS011;7667;51.232;17.110;2023-12-07T08:39:27;97.20;;;53.50;;
15132;SDS011;7667;51.232;17.110;2023-12-07T08:41:54;97.53;;;53.10;;
15132;SDS011;7667;51.232;17.110;2023-12-07T08:44:22;98.23;;;55.07;;
15132;SDS011;7667;51.232;17.110;2023-12-07T08:46:49;99.17;;;55.63;;
15132;SDS011;7667;51.232;17.110;2023-12-07T08:49:17;100.47;;;54.30;;
15132;SDS011;7667;51.232;17.110;2023-12-07T08:51:45;99.43;;;54.70;;
15132;SDS011;7667;51.232;17.110;2023-12-07T08:54:32;109.67;;;59.63;;
15132;SDS011;7667;51.232;17.110;2023-12-07T08:57:00;110.53;;;58.67;;
15132;SDS011;7667;51.232;17.110;2023-12-07T08:59:28;107.47;;;60.87;;
15132;SDS011;7667;51.232;17.110;2023-12-07T09:01:56;105.10;;;59.13;;
15132;SDS011;7667;51.232;17.110;2023-12-07T09:04:24;105.77;;;58.50;;
15132;SDS011;7667;51.232;17.110;2023-12-07T09:06:52;110.60;;;61.00;;
15132;SDS011;7667;51.232;17.110;2023-12-07T09:09:20;108.40;;;61.00;;
15132;SDS011;7667;51.232;17.110;2023-12-07T09:11:49;120.03;;;61.93;;
15132;SDS011;7667;51.232;17.110;2023-12-07T09:14:16;110.90;;;58.00;;
15132;SDS011;7667;51.232;17.110;2023-12-07T09:16:44;107.17;;;57.20;;
15132;SDS011;7667;51.232;17.110;2023-12-07T09:19:13;109.00;;;57.53;;
15132;SDS011;7667;51.232;17.110;2023-12-07T09:21:41;110.70;;;59.77;;
15132;SDS011;7667;51.232;17.110;2023-12-07T09:24:09;106.70;;;59.80;;
15132;SDS011;7667;51.232;17.110;2023-12-07T09:26:37;105.97;;;57.97;;
15132;SDS011;7667;51.232;17.110;2023-12-07T09:29:05;104.90;;;55.13;;
15132;SDS011;7667;51.232;17.110;2023-12-07T09:31:32;102.73;;;56.03;;
15132;SDS011;7667;51.232;17.110;2023-12-07T09:34:00;102.67;;;55.20;;
15132;SDS011;7667;51.232;17.110;2023-12-07T09:36:38;100.33;;;55.80;;
15132;SDS011;7667;51.232;17.110;2023-12-07T09:39:06;99.73;;;55.33;;
15132;SDS011;7667;51.232;17.110;2023-12-07T09:41:33;102.60;;;55.13;;
15132;SDS011;7667;51.232;17.110;2023-12-07T09:44:01;103.03;;;55.57;;
15132;SDS011;7667;51.232;17.110;2023-12-07T09:46:30;99.10;;;57.10;;
15132;SDS011;7667;51.232;17.110;2023-12-07T09:48:59;105.37;;;58.83;;
15132;SDS011;7667;51.232;17.110;2023-12-07T09:51:27;103.40;;;56.53;;
15132;SDS011;7667;51.232;17.110;2023-12-07T09:53:58;109.83;;;56.07;;
15132;SDS011;7667;51.232;17.110;2023-12-07T09:56:26;99.83;;;54.07;;
15132;SDS011;7667;51.232;17.110;2023-12-07T09:58:53;99.20;;;54.73;;
15132;SDS011;7667;51.232;17.110;2023-12-07T10:01:21;103.37;;;54.60;;
15132;SDS011;7667;51.232;17.110;2023-12-07T10:06:50;99.50;;;53.87;;
15132;SDS011;7667;51.232;17.110;2023-12-07T10:09:23;100.23;;;54.33;;
15132;SDS011;7667;51.232;17.110;2023-12-07T10:12:03;96.80;;;55.23;;
15132;SDS011;7667;51.232;17.110;2023-12-07T10:14:32;104.97;;;56.13;;
15132;SDS011;7667;51.232;17.110;2023-12-07T10:17:00;101.20;;;58.00;;
15132;SDS011;7667;51.232;17.110;2023-12-07T10:19:28;103.10;;;55.80;;
15132;SDS011;7667;51.232;17.110;2023-12-07T10:21:58;99.90;;;53.80;;
15132;SDS011;7667;51.232;17.110;2023-12-07T10:24:26;99.70;;;54.07;;
15132;SDS011;7667;51.232;17.110;2023-12-07T10:26:55;97.97;;;52.30;;
15132;SDS011;7667;51.232;17.110;2023-12-07T10:29:29;102.03;;;53.83;;
15132;SDS011;7667;51.232;17.110;2023-12-07T10:32:00;107.73;;;58.70;;
15132;SDS011;7667;51.232;17.110;2023-12-07T10:34:31;115.57;;;58.30;;
15132;SDS011;7667;51.232;17.110;2023-12-07T10:37:03;115.47;;;59.73;;
15132;SDS011;7667;51.232;17.110;2023-12-07T10:39:31;110.43;;;58.60;;
15132;SDS011;7667;51.232;17.110;2023-12-07T10:42:01;104.00;;;58.23;;
15132;SDS011;7667;51.232;17.110;2023-12-07T10:44:35;104.37;;;58.47;;
15132;SDS011;7667;51.232;17.110;2023-12-07T10:47:11;104.57;;;58.03;;
15132;SDS011;7667;51.232;17.110;2023-12-07T10:49:40;104.70;;;57.57;;
15132;SDS011;7667;51.232;17.110;2023-12-07T10:52:13;109.93;;;57.60;;
15132;SDS011;7667;51.232;17.110;2023-12-07T10:57:40;99.70;;;56.93;;
15132;SDS011;7667;51.232;17.110;2023-12-07T11:00:08;95.37;;;52.20;;
15132;SDS011;7667;51.232;17.110;2023-12-07T11:02:36;101.77;;;53.93;;
15132;SDS011;7667;51.232;17.110;2023-12-07T11:05:06;101.60;;;53.23;;
15132;SDS011;7667;51.232;17.110;2023-12-07T11:07:47;99.83;;;52.53;;
15132;SDS011;7667;51.232;17.110;2023-12-07T11:10:49;93.20;;;51.03;;
15132;SDS011;7667;51.232;17.110;2023-12-07T11:13:26;79.87;;;48.23;;
15132;SDS011;7667;51.232;17.110;2023-12-07T11:15:57;93.33;;;51.17;;
15132;SDS011;7667;51.232;17.110;2023-12-07T11:18:25;82.07;;;47.93;;
15132;SDS011;7667;51.232;17.110;2023-12-07T11:20:55;77.53;;;46.10;;
15132;SDS011;7667;51.232;17.110;2023-12-07T11:23:23;79.90;;;45.83;;
15132;SDS011;7667;51.232;17.110;2023-12-07T11:25:54;84.27;;;47.40;;
15132;SDS011;7667;51.232;17.110;2023-12-07T11:28:35;78.17;;;47.23;;
15132;SDS011;7667;51.232;17.110;2023-12-07T11:31:08;75.67;;;47.13;;
15132;SDS011;7667;51.232;17.110;2023-12-07T11:33:40;80.27;;;47.70;;
15132;SDS011;7667;51.232;17.110;2023-12-07T11:36:09;74.63;;;45.80;;
15132;SDS011;7667;51.232;17.110;2023-12-07T11:41:44;79.93;;;46.57;;
15132;SDS011;7667;51.232;17.110;2023-12-07T11:44:12;85.30;;;49.83;;
15132;SDS011;7667;51.232;17.110;2023-12-07T11:46:40;84.03;;;48.83;;
15132;SDS011;7667;51.232;17.110;2023-12-07T11:49:07;77.80;;;45.57;;
15132;SDS011;7667;51.232;17.110;2023-12-07T11:51:54;82.90;;;47.50;;
15132;SDS011;7667;51.232;17.110;2023-12-07T11:54:22;85.13;;;48.63;;
15132;SDS011;7667;51.232;17.110;2023-12-07T11:56:56;88.80;;;48.27;;
15132;SDS011;7667;51.232;17.110;2023-12-07T11:59:24;82.10;;;47.23;;
15132;SDS011;7667;51.232;17.110;2023-12-07T12:02:00;81.23;;;46.83;;
15132;SDS011;7667;51.232;17.110;2023-12-07T12:04:29;85.33;;;47.13;;
15132;SDS011;7667;51.232;17.110;2023-12-07T12:06:57;82.37;;;45.87;;
15132;SDS011;7667;51.232;17.110;2023-12-07T12:09:25;74.87;;;44.20;;
15132;SDS011;7667;51.232;17.110;2023-12-07T12:11:58;74.93;;;42.93;;
15132;SDS011;7667;51.232;17.110;2023-12-07T12:14:27;75.67;;;44.67;;
15132;SDS011;7667;51.232;17.110;2023-12-07T12:16:55;79.07;;;46.77;;
15132;SDS011;7667;51.232;17.110;2023-12-07T12:19:24;87.70;;;47.30;;
15132;SDS011;7667;51.232;17.110;2023-12-07T12:22:03;85.27;;;47.10;;
15132;SDS011;7667;51.232;17.110;2023-12-07T12:24:36;86.87;;;46.87;;
15132;SDS011;7667;51.232;17.110;2023-12-07T12:27:06;85.73;;;46.63;;
15132;SDS011;7667;51.232;17.110;2023-12-07T12:29:34;83.30;;;45.37;;
15132;SDS011;7667;51.232;17.110;2023-12-07T12:32:03;82.00;;;47.10;;
15132;SDS011;7667;51.232;17.110;2023-12-07T12:34:33;83.20;;;45.57;;
15132;SDS011;7667;51.232;17.110;2023-12-07T12:37:02;77.03;;;44.50;;
15132;SDS011;7667;51.232;17.110;2023-12-07T12:39:33;81.77;;;47.10;;
15132;SDS011;7667;51.232;17.110;2023-12-07T12:42:02;88.87;;;48.63;;
15132;SDS011;7667;51.232;17.110;2023-12-07T12:44:32;87.07;;;48.70;;
15132;SDS011;7667;51.232;17.110;2023-12-07T12:47:07;84.50;;;47.77;;
15132;SDS011;7667;51.232;17.110;2023-12-07T12:49:40;73.67;;;45.17;;
15132;SDS011;7667;51.232;17.110;2023-12-07T12:52:16;69.13;;;42.83;;
15132;SDS011;7667;51.232;17.110;2023-12-07T12:54:44;65.00;;;42.00;;
15132;SDS011;7667;51.232;17.110;2023-12-07T12:57:12;67.20;;;41.60;;
15132;SDS011;7667;51.232;17.110;2023-12-07T12:59:41;65.67;;;39.57;;
15132;SDS011;7667;51.232;17.110;2023-12-07T13:02:08;60.67;;;37.03;;
15132;SDS011;7667;51.232;17.110;2023-12-07T13:04:39;64.90;;;42.13;;
15132;SDS011;7667;51.232;17.110;2023-12-07T13:07:08;63.23;;;39.97;;
15132;SDS011;7667;51.232;17.110;2023-12-07T13:09:37;68.40;;;42.20;;
15132;SDS011;7667;51.232;17.110;2023-12-07T13:12:05;76.40;;;46.23;;
15132;SDS011;7667;51.232;17.110;2023-12-07T13:14:33;100.00;;;58.57;;
15132;SDS011;7667;51.232;17.110;2023-12-07T13:17:06;97.80;;;56.03;;
15132;SDS011;7667;51.232;17.110;2023-12-07T13:19:36;105.13;;;61.30;;
15132;SDS011;7667;51.232;17.110;2023-12-07T13:22:05;92.60;;;53.33;;
15132;SDS011;7667;51.232;17.110;2023-12-07T13:24:33;82.13;;;46.13;;
15132;SDS011;7667;51.232;17.110;2023-12-07T13:27:04;83.87;;;49.10;;
15132;SDS011;7667;51.232;17.110;2023-12-07T13:29:32;77.37;;;47.70;;
15132;SDS011;7667;51.232;17.110;2023-12-07T13:32:03;70.67;;;43.13;;
15132;SDS011;7667;51.232;17.110;2023-12-07T13:34:32;78.40;;;43.80;;
15132;SDS011;7667;51.232;17.110;2023-12-07T13:37:00;80.43;;;48.33;;
15132;SDS011;7667;51.232;17.110;2023-12-07T13:39:28;79.73;;;50.10;;
15132;SDS011;7667;51.232;17.110;2023-12-07T13:41:58;70.57;;;43.20;;
15132;SDS011;7667;51.232;17.110;2023-12-07T13:44:30;67.13;;;42.60;;
15132;SDS011;7667;51.232;17.110;2023-12-07T13:46:59;69.63;;;45.40;;
15132;SDS011;7667;51.232;17.110;2023-12-07T13:49:27;62.90;;;38.10;;
15132;SDS011;7667;51.232;17.110;2023-12-07T13:52:01;63.07;;;37.80;;
15132;SDS011;7667;51.232;17.110;2023-12-07T13:54:36;79.60;;;47.90;;
15132;SDS011;7667;51.232;17.110;2023-12-07T13:57:19;88.20;;;54.23;;
15132;SDS011;7667;51.232;17.110;2023-12-07T13:59:48;74.17;;;46.33;;
15132;SDS011;7667;51.232;17.110;2023-12-07T14:02:17;61.70;;;39.27;;
15132;SDS011;7667;51.232;17.110;2023-12-07T14:04:46;59.60;;;38.03;;
15132;SDS011;7667;51.232;17.110;2023-12-07T14:07:18;60.60;;;35.90;;
15132;SDS011;7667;51.232;17.110;2023-12-07T14:09:50;56.50;;;35.73;;
15132;SDS011;7667;51.232;17.110;2023-12-07T14:12:25;60.63;;;36.03;;
15132;SDS011;7667;51.232;17.110;2023-12-07T14:14:56;54.87;;;33.87;;
15132;SDS011;7667;51.232;17.110;2023-12-07T14:17:24;60.07;;;37.80;;
15132;SDS011;7667;51.232;17.110;2023-12-07T14:20:04;54.77;;;34.57;;
15132;SDS011;7667;51.232;17.110;2023-12-07T14:22:54;59.53;;;37.03;;
15132;SDS011;7667;51.232;17.110;2023-12-07T14:25:23;63.90;;;38.77;;
15132;SDS011;7667;51.232;17.110;2023-12-07T14:27:51;65.27;;;40.37;;
15132;SDS011;7667;51.232;17.110;2023-12-07T14:30:19;72.10;;;41.13;;
15132;SDS011;7667;51.232;17.110;2023-12-07T14:32:48;75.13;;;44.10;;
15132;SDS011;7667;51.232;17.110;2023-12-07T14:35:19;79.87;;;45.80;;
15132;SDS011;7667;51.232;17.110;2023-12-07T14:37:49;75.27;;;45.00;;
15132;SDS011;7667;51.232;17.110;2023-12-07T14:40:17;84.03;;;48.73;;